Dati Storici

Data ora Umidita' aria (%) Temperatura aria (°C) Rad globale (W/m²) Gonioanemometro (°) Tacoanemometro (m/s) Pioggia (mm)
24-06-2020 22:10 92.6 % 18.999 212.326 1.451 0 0
24-06-2020 22:00 66.2 % 21.717 354.415 1.258 0 0
24-06-2020 21:50 57.7 % 24.129 284.294 -0.021 0 0
24-06-2020 21:40 54.7 % 24.346 277.412 -0.015 0 0
24-06-2020 21:30 54.2 % 24.407 52.39 -0.017 0 0
24-06-2020 21:20 54.7 % 24.393 65.343 -0.019 0 0
24-06-2020 21:10 55.3 % 24.304 345.575 -0.019 0 0
24-06-2020 21:00 55.8 % 24.154 11.672 -0.023 0 0
24-06-2020 20:50 55.3 % 24.158 39.935 -0.012 0 0
24-06-2020 20:40 55.4 % 24.229 42.388 -0.016 0 0
24-06-2020 20:30 55.3 % 24.145 8.185 -0.02 0 0
24-06-2020 20:20 55.2 % 24.2 49.18 -0.009 0 0
24-06-2020 20:10 55.2 % 24.293 34.05 0.329 0 0
24-06-2020 20:00 55.8 % 24.375 70.437 -0.024 0 0
24-06-2020 19:50 55.5 % 24.388 15.696 -0.018 0 0
24-06-2020 19:40 55.4 % 24.484 69.102 -0.025 0 0
24-06-2020 19:30 54.2 % 24.677 50.037 -0.023 0 0
24-06-2020 19:20 53.5 % 24.781 44.705 0.299 0 0
24-06-2020 19:10 53.1 % 24.98 84.545 0.541 0 0
24-06-2020 19:00 52 % 25.001 25.294 0.821 0 0

I dati sono presentati in modo automatico a scopo informativo. In seguito a verifica i dati possono subire modifiche o essere invalidati e non riportati negli archivi definitivi.